createdAt,value
2023-05-12T00:01:45.101Z,53.58
2023-05-12T00:04:11.857Z,53.50
2023-05-12T00:06:38.605Z,53.94
2023-05-12T00:09:06.131Z,53.82
2023-05-12T00:11:32.768Z,53.35
2023-05-12T00:13:59.447Z,54.17
2023-05-12T00:16:26.169Z,54.01
2023-05-12T00:18:52.791Z,53.46
2023-05-12T00:21:19.591Z,54.12
2023-05-12T00:23:46.127Z,54.26
2023-05-12T00:26:12.681Z,54.03
2023-05-12T00:28:39.222Z,53.50
2023-05-12T00:31:05.822Z,53.88
2023-05-12T00:33:32.358Z,53.94
2023-05-12T00:36:01.228Z,53.35
2023-05-12T00:38:27.982Z,54.09
2023-05-12T00:40:54.556Z,54.25
2023-05-12T00:43:21.095Z,53.98
2023-05-12T00:45:48.282Z,53.55
2023-05-12T00:48:14.855Z,54.05
2023-05-12T00:50:41.350Z,54.08
2023-05-12T00:53:07.978Z,54.03
2023-05-12T00:55:34.594Z,53.64
2023-05-12T00:58:01.127Z,53.79
2023-05-12T01:00:27.710Z,54.29
2023-05-12T01:02:57.623Z,53.67
2023-05-12T01:05:32.126Z,54.18
2023-05-12T01:08:01.140Z,54.25
2023-05-12T01:10:27.717Z,54.14
2023-05-12T01:12:54.327Z,53.61
2023-05-12T01:15:20.888Z,53.88
2023-05-12T01:18:01.431Z,53.46
2023-05-12T01:20:29.111Z,53.86
2023-05-12T01:22:55.784Z,53.72
2023-05-12T01:25:28.764Z,54.41
2023-05-12T01:27:55.829Z,54.18
2023-05-12T01:30:24.726Z,54.43
2023-05-12T01:32:52.374Z,53.70
2023-05-12T01:35:19.213Z,54.22
2023-05-12T01:37:46.381Z,53.76
2023-05-12T01:40:13.063Z,54.25
2023-05-12T01:42:42.078Z,54.50
2023-05-12T01:45:09.328Z,54.22
2023-05-12T01:47:36.107Z,53.92
2023-05-12T01:50:03.302Z,53.84
2023-05-12T01:52:29.838Z,53.94
2023-05-12T01:54:56.358Z,54.09
2023-05-12T01:57:22.991Z,54.41
2023-05-12T01:59:49.522Z,54.20
2023-05-12T02:02:16.315Z,54.32
2023-05-12T02:04:43.235Z,54.07
2023-05-12T02:07:10.455Z,53.84
2023-05-12T02:09:36.949Z,53.86
2023-05-12T02:12:04.351Z,54.39
2023-05-12T02:14:30.873Z,54.37
2023-05-12T02:16:57.410Z,54.56
2023-05-12T02:19:23.913Z,53.78
2023-05-12T02:21:50.449Z,54.47
2023-05-12T02:24:17.036Z,53.94
2023-05-12T02:26:44.052Z,53.97
2023-05-12T02:29:11.699Z,53.94
2023-05-12T02:31:38.496Z,53.72
2023-05-12T02:34:06.676Z,53.93
2023-05-12T02:36:33.477Z,54.36
2023-05-12T02:39:00.008Z,53.91
2023-05-12T02:41:26.736Z,54.01
2023-05-12T02:43:53.708Z,54.27
2023-05-12T02:46:20.356Z,53.86
2023-05-12T02:48:47.244Z,54.53
2023-05-12T02:51:13.813Z,54.35
2023-05-12T02:53:40.342Z,54.00
2023-05-12T02:56:07.568Z,54.21
2023-05-12T02:58:34.700Z,53.87
2023-05-12T03:01:10.035Z,54.62
2023-05-12T03:03:37.160Z,54.51
2023-05-12T03:06:04.644Z,54.00
2023-05-12T03:08:31.120Z,53.93
2023-05-12T03:10:57.824Z,54.52
2023-05-12T03:13:24.342Z,54.25
2023-05-12T03:15:50.858Z,54.15
2023-05-12T03:18:17.395Z,54.00
2023-05-12T03:20:43.991Z,54.66
2023-05-12T03:23:10.534Z,54.40
2023-05-12T03:25:37.038Z,54.02
2023-05-12T03:28:03.687Z,54.21
2023-05-12T03:30:30.391Z,53.84
2023-05-12T03:32:56.970Z,54.38
2023-05-12T03:35:23.693Z,54.44
2023-05-12T03:37:50.289Z,54.29
2023-05-12T03:40:18.758Z,54.07
2023-05-12T03:42:45.812Z,54.71
2023-05-12T03:45:12.465Z,53.72
2023-05-12T03:47:40.740Z,54.11
2023-05-12T03:50:08.288Z,53.98
2023-05-12T03:52:34.834Z,53.88
2023-05-12T03:55:01.316Z,54.14
2023-05-12T03:57:27.843Z,54.54
2023-05-12T03:59:54.922Z,53.93
2023-05-12T04:02:21.547Z,54.29
2023-05-12T04:04:48.132Z,54.03
2023-05-12T04:07:14.707Z,54.04
2023-05-12T04:09:41.331Z,54.88
2023-05-12T04:12:08.123Z,54.47
2023-05-12T04:14:42.398Z,54.61
2023-05-12T04:17:09.959Z,54.56
2023-05-12T04:19:36.490Z,54.14
2023-05-12T04:22:02.983Z,54.64
2023-05-12T04:24:29.535Z,54.62
2023-05-12T04:26:57.673Z,54.60
2023-05-12T04:29:24.166Z,54.68
2023-05-12T04:31:50.717Z,54.69
2023-05-12T04:34:17.317Z,54.09
2023-05-12T04:36:43.844Z,54.43
2023-05-12T04:39:10.358Z,54.41
2023-05-12T04:41:36.962Z,54.52
2023-05-12T04:44:03.641Z,54.37
2023-05-12T04:46:30.298Z,54.07
2023-05-12T04:48:57.016Z,54.18
2023-05-12T04:51:23.557Z,54.57
2023-05-12T04:53:50.059Z,54.66
2023-05-12T04:56:16.813Z,54.50
2023-05-12T04:58:43.444Z,54.70
2023-05-12T05:01:12.269Z,53.97
2023-05-12T05:03:39.717Z,54.68
2023-05-12T05:06:06.788Z,54.32
2023-05-12T05:08:33.427Z,54.25
2023-05-12T05:10:59.952Z,54.10
2023-05-12T05:13:26.461Z,54.69
2023-05-12T05:15:54.136Z,54.11
2023-05-12T05:18:23.829Z,54.56
2023-05-12T05:20:57.918Z,54.76
2023-05-12T05:23:25.881Z,54.24
2023-05-12T05:25:52.627Z,54.06
2023-05-12T05:28:19.174Z,54.65
2023-05-12T05:30:45.768Z,54.46
2023-05-12T05:33:13.177Z,53.97
2023-05-12T05:35:40.078Z,54.68
2023-05-12T05:38:06.618Z,54.13
2023-05-12T05:40:41.644Z,54.53
2023-05-12T05:43:11.882Z,54.69
2023-05-12T05:45:38.464Z,54.06
2023-05-12T05:48:05.274Z,54.09
2023-05-12T05:50:31.872Z,54.84
2023-05-12T05:52:58.365Z,54.18
2023-05-12T05:55:24.923Z,54.29
2023-05-12T05:57:51.441Z,54.47
2023-05-12T06:00:18.117Z,54.64
2023-05-12T06:02:44.842Z,54.15
2023-05-12T06:05:14.265Z,54.75
2023-05-12T06:07:41.191Z,54.47
2023-05-12T06:10:08.196Z,54.40
2023-05-12T06:12:34.887Z,54.42
2023-05-12T06:15:01.461Z,54.32
2023-05-12T06:17:28.320Z,53.77
2023-05-12T06:19:55.354Z,54.32
2023-05-12T06:22:21.901Z,54.40
2023-05-12T06:24:48.632Z,54.37
2023-05-12T06:27:15.297Z,54.26
2023-05-12T06:29:41.793Z,54.26
2023-05-12T06:32:09.037Z,54.40
2023-05-12T06:34:36.670Z,53.97
2023-05-12T06:37:03.244Z,53.64
2023-05-12T06:39:29.763Z,53.61
2023-05-12T06:41:56.974Z,53.88
2023-05-12T06:44:23.564Z,53.72
2023-05-12T06:46:50.074Z,53.64
2023-05-12T06:49:16.607Z,54.17
2023-05-12T06:51:43.323Z,54.12
2023-05-12T06:54:09.842Z,53.75
2023-05-12T06:56:36.442Z,53.64
2023-05-12T06:59:04.184Z,53.88
2023-05-12T07:01:31.981Z,53.81
2023-05-12T07:03:59.461Z,53.98
2023-05-12T07:06:29.409Z,53.72
2023-05-12T07:08:56.343Z,53.88
2023-05-12T07:11:23.260Z,53.42
2023-05-12T07:13:51.038Z,53.62
2023-05-12T07:16:18.747Z,53.51
2023-05-12T07:18:46.062Z,53.91
2023-05-12T07:21:13.302Z,53.56
2023-05-12T07:23:40.522Z,54.02
2023-05-12T07:26:07.885Z,53.66
2023-05-12T07:28:38.333Z,53.84
2023-05-12T07:31:07.185Z,53.68
2023-05-12T07:33:35.466Z,53.50
2023-05-12T07:36:04.602Z,53.90
2023-05-12T07:38:31.965Z,53.77
2023-05-12T07:40:59.619Z,53.73
2023-05-12T07:43:26.441Z,53.86
2023-05-12T07:45:54.615Z,54.08
2023-05-12T07:48:21.121Z,53.68
2023-05-12T07:50:47.660Z,53.68
2023-05-12T07:53:14.208Z,53.05
2023-05-12T07:55:41.263Z,53.45
2023-05-12T07:58:07.810Z,53.37
2023-05-12T08:00:34.398Z,53.84
2023-05-12T08:03:01.152Z,53.10
2023-05-12T08:05:28.123Z,53.52
2023-05-12T08:07:54.674Z,53.57
2023-05-12T08:10:21.252Z,53.40
2023-05-12T08:12:47.930Z,53.10
2023-05-12T08:15:14.751Z,53.48
2023-05-12T08:17:41.655Z,52.96
2023-05-12T08:20:09.096Z,52.87
2023-05-12T08:22:35.747Z,53.06
2023-05-12T08:25:02.346Z,53.03
2023-05-12T08:27:29.592Z,53.36
2023-05-12T08:29:56.139Z,53.16
2023-05-12T08:32:22.845Z,52.68
2023-05-12T08:34:49.416Z,53.26
2023-05-12T08:37:15.925Z,53.23
2023-05-12T08:39:42.498Z,53.23
2023-05-12T08:42:43.980Z,53.29
2023-05-12T08:45:11.318Z,52.87
2023-05-12T08:47:38.374Z,53.01
2023-05-12T08:50:06.106Z,52.55
2023-05-12T08:52:34.726Z,52.81
2023-05-12T08:55:03.426Z,52.82
2023-05-12T08:57:31.070Z,52.97
2023-05-12T09:00:01.277Z,52.34
2023-05-12T09:02:41.060Z,52.40
2023-05-12T09:05:11.738Z,52.38
2023-05-12T09:07:43.775Z,52.83
2023-05-12T09:10:29.997Z,52.34
2023-05-12T09:13:30.622Z,52.91
2023-05-12T09:16:01.764Z,52.60
2023-05-12T09:19:06.681Z,52.46
2023-05-12T09:21:34.196Z,52.56
2023-05-12T09:24:06.023Z,52.52
2023-05-12T09:26:46.224Z,52.29
2023-05-12T09:29:20.813Z,52.79
2023-05-12T09:31:55.800Z,52.70
2023-05-12T09:34:43.190Z,52.58
2023-05-12T09:37:10.163Z,52.15
2023-05-12T09:39:36.952Z,52.50
2023-05-12T09:42:03.853Z,52.75
2023-05-12T09:44:31.985Z,52.66
2023-05-12T09:47:07.107Z,52.54
2023-05-12T09:49:33.606Z,52.46
2023-05-12T09:52:00.252Z,52.49
2023-05-12T09:54:32.381Z,52.62
2023-05-12T09:57:00.689Z,52.67
2023-05-12T09:59:32.679Z,52.43
2023-05-12T10:02:01.381Z,52.56
2023-05-12T10:04:30.066Z,52.57
2023-05-12T10:06:58.163Z,52.46
2023-05-12T10:09:31.545Z,52.00
2023-05-12T10:11:59.118Z,52.28
2023-05-12T10:14:26.186Z,52.32
2023-05-12T10:16:53.871Z,52.43
2023-05-12T10:19:21.190Z,52.21
2023-05-12T10:21:48.822Z,52.36
2023-05-12T10:24:18.668Z,51.92
2023-05-12T10:26:45.667Z,52.25
2023-05-12T10:29:13.594Z,52.23
2023-05-12T10:31:40.767Z,52.05
2023-05-12T10:34:07.419Z,51.94
2023-05-12T10:36:48.065Z,52.33
2023-05-12T10:39:17.414Z,52.09
2023-05-12T10:41:44.083Z,52.57
2023-05-12T10:44:10.909Z,52.02
2023-05-12T10:46:37.882Z,52.03
2023-05-12T10:49:10.210Z,51.89
2023-05-12T10:51:42.650Z,51.86
2023-05-12T10:54:10.994Z,52.32
2023-05-12T10:56:38.378Z,52.16
2023-05-12T10:59:09.528Z,52.22
2023-05-12T11:01:37.619Z,52.18
2023-05-12T11:04:16.152Z,51.89
2023-05-12T11:06:45.243Z,51.87
2023-05-12T11:09:13.346Z,51.67
2023-05-12T11:11:40.506Z,51.92
2023-05-12T11:14:08.312Z,51.94
2023-05-12T11:16:41.115Z,51.62
2023-05-12T11:19:07.735Z,51.78
2023-05-12T11:21:34.704Z,51.88
2023-05-12T11:24:02.295Z,51.97
2023-05-12T11:26:29.945Z,52.04
2023-05-12T11:29:02.994Z,51.64
2023-05-12T11:31:29.538Z,51.87
2023-05-12T11:34:12.716Z,51.45
2023-05-12T11:39:07.097Z,51.57
2023-05-12T11:41:33.595Z,51.40
2023-05-12T11:44:00.142Z,51.56
2023-05-12T11:46:30.380Z,51.16
2023-05-12T11:48:58.864Z,51.43
2023-05-12T11:51:26.860Z,51.78
2023-05-12T11:53:53.982Z,51.77
2023-05-12T11:56:23.412Z,51.48
2023-05-12T11:58:57.627Z,51.27
2023-05-12T12:01:25.377Z,51.58
2023-05-12T12:03:55.948Z,51.68
2023-05-12T12:06:23.291Z,51.28
2023-05-12T12:09:00.125Z,51.61
2023-05-12T12:11:30.773Z,51.17
2023-05-12T12:13:57.723Z,51.37
2023-05-12T12:16:29.424Z,51.07
2023-05-12T12:18:56.794Z,51.24
2023-05-12T12:21:25.045Z,51.36
2023-05-12T12:23:52.175Z,50.88
2023-05-12T12:26:20.834Z,51.11
2023-05-12T12:28:47.772Z,51.10
2023-05-12T12:31:15.452Z,51.26
2023-05-12T12:33:42.161Z,51.11
2023-05-12T12:36:09.040Z,51.08
2023-05-12T12:38:35.554Z,51.18
2023-05-12T12:41:02.112Z,51.16
2023-05-12T12:43:28.840Z,51.04
2023-05-12T12:45:55.426Z,51.20
2023-05-12T12:48:22.035Z,51.04
2023-05-12T12:50:48.641Z,51.12
2023-05-12T12:53:15.371Z,51.16
2023-05-12T12:55:42.000Z,51.10
2023-05-12T12:58:09.110Z,50.92
2023-05-12T13:00:36.397Z,50.95
2023-05-12T13:03:03.345Z,51.11
2023-05-12T13:05:29.899Z,51.16
2023-05-12T13:07:56.455Z,51.14
2023-05-12T13:10:23.044Z,51.18
2023-05-12T13:12:49.829Z,51.19
2023-05-12T13:15:19.259Z,51.08
2023-05-12T13:17:48.970Z,51.05
2023-05-12T13:20:16.162Z,50.99
2023-05-12T13:22:43.400Z,51.02
2023-05-12T13:25:11.006Z,51.36
2023-05-12T13:27:38.595Z,51.15
2023-05-12T13:30:07.217Z,51.08
2023-05-12T13:32:34.743Z,51.21
2023-05-12T13:35:01.573Z,51.14
2023-05-12T13:37:28.324Z,50.85
2023-05-12T13:39:54.873Z,51.05
2023-05-12T13:42:22.394Z,51.04
2023-05-12T13:44:49.622Z,51.09
2023-05-12T13:47:16.308Z,50.95
2023-05-12T13:49:42.898Z,51.20
2023-05-12T13:52:09.411Z,50.92
2023-05-12T13:54:35.909Z,51.09
2023-05-12T13:57:03.966Z,50.84
2023-05-12T13:59:31.360Z,51.07
2023-05-12T14:01:58.489Z,50.87
2023-05-12T14:04:25.395Z,50.73
2023-05-12T14:06:51.909Z,50.72
2023-05-12T14:09:18.577Z,50.90
2023-05-12T14:11:45.128Z,50.85
2023-05-12T14:14:11.751Z,50.93
2023-05-12T14:16:38.271Z,50.88
2023-05-12T14:19:04.886Z,50.96
2023-05-12T14:21:31.449Z,50.97
2023-05-12T14:23:58.167Z,50.66
2023-05-12T14:26:25.982Z,50.65
2023-05-12T14:28:52.851Z,50.71
2023-05-12T14:31:19.885Z,50.72
2023-05-12T14:33:46.409Z,50.79
2023-05-12T14:36:12.961Z,50.78
2023-05-12T14:38:39.510Z,50.97
2023-05-12T14:41:08.408Z,50.92
2023-05-12T14:43:35.346Z,50.95
2023-05-12T14:46:02.159Z,50.80
2023-05-12T14:48:28.969Z,50.71
2023-05-12T14:50:56.721Z,51.03
2023-05-12T14:53:23.849Z,51.09
2023-05-12T14:55:51.240Z,50.79
2023-05-12T14:58:18.203Z,50.54
2023-05-12T15:00:45.074Z,50.93
2023-05-12T15:03:11.775Z,50.99
2023-05-12T15:05:56.593Z,50.83
2023-05-12T15:08:23.955Z,50.81
2023-05-12T15:10:50.631Z,50.76
2023-05-12T15:13:20.001Z,50.92
2023-05-12T15:15:46.700Z,50.84
2023-05-12T15:18:13.285Z,50.87
2023-05-12T15:20:39.866Z,50.91
2023-05-12T15:23:06.447Z,50.89
2023-05-12T15:25:32.981Z,51.02
2023-05-12T15:27:59.530Z,50.73
2023-05-12T15:30:26.078Z,50.81
2023-05-12T15:32:52.721Z,50.78
2023-05-12T15:35:19.421Z,50.94
2023-05-12T15:37:46.416Z,50.99
2023-05-12T15:40:13.728Z,50.98
2023-05-12T15:42:40.798Z,51.15
2023-05-12T15:45:09.146Z,50.59
2023-05-12T15:47:36.154Z,50.80
2023-05-12T15:50:03.891Z,50.72
2023-05-12T15:52:30.669Z,50.78
2023-05-12T15:54:57.518Z,50.86
2023-05-12T15:57:24.210Z,50.96
2023-05-12T15:59:56.284Z,50.66
2023-05-12T16:02:22.849Z,50.79
2023-05-12T16:04:49.361Z,51.04
2023-05-12T16:07:15.857Z,50.49
2023-05-12T16:09:42.406Z,50.77
2023-05-12T16:12:09.408Z,50.70
2023-05-12T16:14:35.993Z,50.91
2023-05-12T16:17:02.860Z,50.60
2023-05-12T16:19:29.877Z,50.89
2023-05-12T16:21:58.324Z,50.82
2023-05-12T16:24:28.194Z,50.92
2023-05-12T16:26:59.284Z,50.68
2023-05-12T16:29:26.060Z,50.76
2023-05-12T16:31:52.723Z,50.87
2023-05-12T16:34:19.675Z,50.77
2023-05-12T16:36:46.277Z,50.76
2023-05-12T16:39:12.912Z,50.87
2023-05-12T16:41:39.482Z,51.30
2023-05-12T16:44:06.045Z,51.29
2023-05-12T16:46:32.813Z,51.95
2023-05-12T16:48:59.504Z,51.90
2023-05-12T16:51:30.418Z,52.35
2023-05-12T16:53:59.981Z,52.52
2023-05-12T16:56:27.454Z,52.49
2023-05-12T16:58:54.021Z,52.71
2023-05-12T17:01:20.613Z,52.85
2023-05-12T17:03:47.270Z,52.63
2023-05-12T17:06:13.846Z,53.00
2023-05-12T17:08:40.881Z,52.54
2023-05-12T17:11:08.163Z,52.76
2023-05-12T17:13:38.331Z,52.99
2023-05-12T17:16:05.172Z,52.71
2023-05-12T17:18:31.845Z,52.74
2023-05-12T17:20:58.902Z,52.62
2023-05-12T17:23:26.864Z,52.70
2023-05-12T17:25:53.799Z,52.52
2023-05-12T17:28:21.119Z,52.82
2023-05-12T17:30:48.123Z,52.77
2023-05-12T17:33:15.620Z,52.81
2023-05-12T17:35:47.090Z,52.57
2023-05-12T17:38:20.029Z,52.77
2023-05-12T17:40:46.614Z,52.53
2023-05-12T17:43:13.508Z,52.60
2023-05-12T17:45:40.088Z,52.58
2023-05-12T17:48:06.934Z,52.60
2023-05-12T17:50:33.557Z,52.72
2023-05-12T17:53:00.178Z,52.84
2023-05-12T17:55:26.835Z,52.57
2023-05-12T17:57:54.214Z,52.62
2023-05-12T18:00:20.838Z,52.64
2023-05-12T18:02:47.730Z,52.42
2023-05-12T18:05:14.563Z,52.40
2023-05-12T18:07:41.212Z,52.42
2023-05-12T18:10:09.373Z,52.59
2023-05-12T18:12:36.922Z,52.89
2023-05-12T18:15:05.202Z,52.65
2023-05-12T18:17:32.539Z,52.58
2023-05-12T18:19:59.454Z,52.52
2023-05-12T18:22:26.445Z,52.76
2023-05-12T18:24:52.991Z,52.78
2023-05-12T18:27:22.321Z,52.87
2023-05-12T18:29:48.802Z,52.71
2023-05-12T18:32:15.355Z,52.49
2023-05-12T18:34:44.041Z,52.72
2023-05-12T18:37:14.322Z,52.63
2023-05-12T18:39:43.592Z,52.88
2023-05-12T18:42:11.069Z,52.81
2023-05-12T18:44:40.574Z,52.91
2023-05-12T18:47:08.522Z,53.04
2023-05-12T18:49:35.839Z,52.90
2023-05-12T18:52:02.565Z,53.06
2023-05-12T18:54:29.316Z,52.85
2023-05-12T18:56:55.959Z,52.99
2023-05-12T18:59:22.490Z,52.83
2023-05-12T19:01:49.075Z,52.79
2023-05-12T19:04:16.205Z,52.80
2023-05-12T19:06:42.762Z,52.76
2023-05-12T19:09:09.318Z,52.96
2023-05-12T19:11:35.844Z,53.09
2023-05-12T19:14:02.403Z,52.68
2023-05-12T19:16:31.401Z,53.15
2023-05-12T19:18:59.001Z,52.92
2023-05-12T19:21:25.599Z,53.05
2023-05-12T19:23:52.226Z,53.21
2023-05-12T19:26:18.799Z,53.24
2023-05-12T19:28:45.638Z,52.89
2023-05-12T19:31:12.354Z,52.82
2023-05-12T19:33:38.961Z,52.80
2023-05-12T19:36:05.936Z,52.97
2023-05-12T19:38:32.420Z,53.04
2023-05-12T19:40:59.013Z,53.12
2023-05-12T19:43:25.610Z,52.91
2023-05-12T19:45:52.161Z,53.11
2023-05-12T19:48:20.362Z,53.34
2023-05-12T19:50:47.432Z,53.06
2023-05-12T19:53:13.942Z,53.35
2023-05-12T19:55:40.560Z,52.80
2023-05-12T19:58:08.921Z,53.11
2023-05-12T20:00:39.171Z,53.05
2023-05-12T20:03:06.821Z,53.28
2023-05-12T20:05:37.579Z,53.24
2023-05-12T20:08:04.558Z,53.27
2023-05-12T20:10:31.157Z,53.25
2023-05-12T20:12:58.470Z,53.21
2023-05-12T20:15:25.005Z,53.22
2023-05-12T20:17:51.659Z,53.06
2023-05-12T20:20:18.264Z,53.17
2023-05-12T20:22:44.841Z,53.25
2023-05-12T20:25:15.897Z,52.85
2023-05-12T20:27:42.955Z,53.02
2023-05-12T20:30:10.440Z,53.11
2023-05-12T20:32:36.981Z,53.29
2023-05-12T20:35:03.789Z,53.09
2023-05-12T20:37:30.310Z,53.21
2023-05-12T20:39:57.058Z,53.12
2023-05-12T20:42:23.631Z,52.93
2023-05-12T20:44:50.183Z,53.28
2023-05-12T20:47:16.729Z,53.16
2023-05-12T20:49:45.128Z,53.06
2023-05-12T20:52:11.748Z,53.21
2023-05-12T20:54:38.623Z,53.31
2023-05-12T20:57:05.351Z,52.96
2023-05-12T20:59:31.881Z,52.86
2023-05-12T21:01:58.466Z,53.15
2023-05-12T21:04:25.062Z,53.02
2023-05-12T21:06:53.148Z,53.28
2023-05-12T21:09:20.200Z,53.30
2023-05-12T21:11:47.244Z,53.34
2023-05-12T21:14:13.860Z,53.51
2023-05-12T21:16:40.449Z,53.18
2023-05-12T21:19:07.215Z,53.08
2023-05-12T21:21:33.878Z,52.79
2023-05-12T21:24:00.414Z,53.25
2023-05-12T21:26:27.555Z,52.98
2023-05-12T21:28:54.215Z,52.84
2023-05-12T21:31:20.901Z,53.26
2023-05-12T21:33:48.176Z,52.86
2023-05-12T21:36:14.769Z,53.18
2023-05-12T21:38:41.416Z,53.22
2023-05-12T21:41:07.972Z,53.25
2023-05-12T21:43:34.531Z,53.20
2023-05-12T21:46:05.110Z,53.04
2023-05-12T21:48:32.343Z,53.16
2023-05-12T21:51:03.108Z,52.73
2023-05-12T21:53:29.973Z,52.90
2023-05-12T21:55:56.552Z,52.72
2023-05-12T21:58:23.777Z,52.88
2023-05-12T22:00:53.398Z,52.69
2023-05-12T22:03:21.647Z,52.56
2023-05-12T22:05:48.532Z,52.38
2023-05-12T22:08:16.308Z,52.67
2023-05-12T22:10:43.331Z,52.58
2023-05-12T22:13:10.212Z,52.58
2023-05-12T22:15:36.873Z,52.66
2023-05-12T22:18:03.487Z,52.44
2023-05-12T22:20:30.055Z,52.51
2023-05-12T22:22:56.594Z,52.50
2023-05-12T22:25:23.577Z,52.09
2023-05-12T22:27:50.090Z,52.25
2023-05-12T22:30:18.220Z,52.51
2023-05-12T22:32:45.090Z,52.16
2023-05-12T22:35:11.725Z,52.37
2023-05-12T22:37:39.236Z,52.54
2023-05-12T22:40:06.632Z,52.54
2023-05-12T22:42:33.213Z,52.50
2023-05-12T22:45:00.960Z,52.60
2023-05-12T22:47:27.802Z,52.51
2023-05-12T22:49:54.318Z,52.63
2023-05-12T22:52:21.337Z,52.57
2023-05-12T22:54:47.906Z,52.56
2023-05-12T22:57:14.472Z,52.33
2023-05-12T22:59:40.960Z,52.36
2023-05-12T23:02:07.498Z,52.78
2023-05-12T23:04:34.052Z,52.66
2023-05-12T23:07:00.916Z,52.82
2023-05-12T23:09:27.509Z,52.30
2023-05-12T23:11:54.051Z,52.32
2023-05-12T23:14:20.549Z,52.76
2023-05-12T23:16:48.022Z,52.57
2023-05-12T23:19:15.547Z,52.89
2023-05-12T23:21:42.132Z,52.91
2023-05-12T23:24:09.239Z,52.84
2023-05-12T23:26:35.872Z,52.81
2023-05-12T23:29:02.445Z,52.65
2023-05-12T23:31:29.078Z,53.07
2023-05-12T23:33:55.919Z,52.90
2023-05-12T23:36:22.496Z,52.72
2023-05-12T23:38:53.534Z,52.64
2023-05-12T23:41:21.993Z,52.85
2023-05-12T23:43:48.524Z,52.81
2023-05-12T23:46:15.087Z,52.60
2023-05-12T23:48:41.664Z,52.92
2023-05-12T23:51:08.218Z,52.87
2023-05-12T23:53:34.898Z,52.62
2023-05-12T23:56:01.955Z,52.70
2023-05-12T23:58:28.491Z,52.67
